Wetterdaten: Woche 01.06.15 - 07.06.15 (KW23)
Datum Zeit Temperatur Luftfeuchte Luftdruck Niederschlag Windrichtung Sonnenschein Solar Wind
01.06.2015 00:00 15,6 C 70 % 1013,7 hPa 0,0 l/m W 0,00 h 0 W/m 4,9 km/h (1 Bft)
01.06.2015 01:00 16,1 C 67 % 1013,8 hPa 0,0 l/m W 0,00 h 0 W/m 6,7 km/h (2 Bft)
01.06.2015 02:00 14,9 C 76 % 1013,9 hPa 0,0 l/m W 0,00 h 0 W/m 5,9 km/h (2 Bft)
01.06.2015 03:00 14,3 C 80 % 1013,7 hPa 0,0 l/m W-SW 0,00 h 0 W/m 9,4 km/h (2 Bft)
01.06.2015 04:00 14,4 C 83 % 1013,6 hPa 0,0 l/m SW 0,00 h 0 W/m 13,0 km/h (3 Bft)
01.06.2015 05:00 14,3 C 83 % 1013,7 hPa 0,0 l/m SW 0,00 h 9 W/m 7,8 km/h (2 Bft)
01.06.2015 06:00 13,9 C 86 % 1013,9 hPa 0,0 l/m SW 0,00 h 46 W/m 5,9 km/h (2 Bft)
01.06.2015 07:00 15,6 C 80 % 1014,0 hPa 0,0 l/m SW 0,50 h 186 W/m 11,6 km/h (2 Bft)
01.06.2015 08:00 17,4 C 72 % 1014,2 hPa 0,0 l/m W-SW 1,00 h 364 W/m 17,7 km/h (3 Bft)
01.06.2015 09:00 19,0 C 65 % 1014,0 hPa 0,0 l/m W-SW 1,00 h 535 W/m 19,4 km/h (3 Bft)
01.06.2015 10:00 20,2 C 61 % 1014,0 hPa 0,0 l/m SW 1,00 h 679 W/m 20,4 km/h (4 Bft)
01.06.2015 11:00 21,1 C 58 % 1013,9 hPa 0,0 l/m W 1,00 h 797 W/m 25,1 km/h (4 Bft)
01.06.2015 12:00 22,3 C 55 % 1013,6 hPa 0,0 l/m W-SW 1,00 h 885 W/m 24,8 km/h (4 Bft)
01.06.2015 13:00 23,1 C 52 % 1013,3 hPa 0,0 l/m SW 1,00 h 911 W/m 31,3 km/h (5 Bft)
01.06.2015 14:00 23,7 C 49 % 1013,2 hPa 0,0 l/m SW 0,58 h 623 W/m 29,5 km/h (5 Bft)
01.06.2015 15:00 21,0 C 57 % 1013,2 hPa 0,0 l/m W-NW 0,42 h 555 W/m 23,9 km/h (4 Bft)
01.06.2015 16:00 22,2 C 59 % 1012,9 hPa 0,0 l/m W-NW 0,75 h 650 W/m 16,1 km/h (3 Bft)
01.06.2015 17:00 23,5 C 54 % 1012,6 hPa 0,0 l/m W-NW 0,83 h 577 W/m 19,0 km/h (3 Bft)
01.06.2015 18:00 21,7 C 60 % 1013,0 hPa 0,0 l/m N-NW 0,17 h 148 W/m 14,5 km/h (3 Bft)
01.06.2015 19:00 19,4 C 71 % 1013,5 hPa 0,2 l/m N-NW 0,25 h 82 W/m 9,3 km/h (2 Bft)
01.06.2015 20:00 18,0 C 83 % 1013,6 hPa 0,0 l/m N 0,00 h 38 W/m 1,6 km/h (1 Bft)
01.06.2015 21:00 16,7 C 90 % 1014,1 hPa 0,0 l/m N-NO 0,00 h 6 W/m 1,2 km/h (1 Bft)
01.06.2015 22:00 15,8 C 93 % 1014,4 hPa 0,0 l/m N 0,00 h 0 W/m 0,1 km/h (0 Bft)
01.06.2015 23:00 15,5 C 94 % 1014,4 hPa 0,0 l/m N 0,00 h 0 W/m 0,1 km/h (0 Bft)
02.06.2015 00:00 15,5 C 86 % 1014,7 hPa 0,0 l/m W-NW 0,00 h 0 W/m 6,0 km/h (2 Bft)
02.06.2015 01:00 14,9 C 90 % 1015,1 hPa 0,0 l/m N 0,00 h 0 W/m 0,8 km/h (0 Bft)
02.06.2015 02:00 13,9 C 93 % 1015,1 hPa 0,0 l/m N 0,00 h 0 W/m 0,0 km/h (0 Bft)
02.06.2015 03:00 13,2 C 94 % 1015,0 hPa 0,0 l/m W-NW 0,00 h 0 W/m 3,1 km/h (1 Bft)
02.06.2015 04:00 13,5 C 95 % 1015,0 hPa 0,0 l/m N 0,00 h 0 W/m 0,3 km/h (0 Bft)
02.06.2015 05:00 13,8 C 95 % 1015,0 hPa 0,0 l/m W-NW 0,00 h 11 W/m 1,7 km/h (1 Bft)
02.06.2015 06:00 13,9 C 96 % 1015,4 hPa 0,0 l/m W-NW 0,00 h 39 W/m 1,6 km/h (1 Bft)
02.06.2015 07:00 14,8 C 95 % 1015,7 hPa 0,0 l/m W-NW 0,00 h 96 W/m 2,8 km/h (1 Bft)
02.06.2015 08:00 15,9 C 92 % 1016,1 hPa 0,0 l/m SW 0,08 h 185 W/m 11,0 km/h (2 Bft)
02.06.2015 09:00 17,6 C 84 % 1016,4 hPa 0,0 l/m SW 0,75 h 403 W/m 14,4 km/h (3 Bft)
02.06.2015 10:00 19,2 C 78 % 1016,6 hPa 0,0 l/m SW 0,67 h 573 W/m 17,4 km/h (3 Bft)
02.06.2015 11:00 20,7 C 68 % 1016,5 hPa 0,0 l/m W-SW 0,92 h 823 W/m 24,0 km/h (4 Bft)
02.06.2015 12:00 21,3 C 64 % 1016,6 hPa 0,0 l/m W-SW 0,92 h 881 W/m 23,3 km/h (4 Bft)
02.06.2015 13:00 22,3 C 60 % 1016,2 hPa 0,0 l/m W 0,92 h 838 W/m 22,8 km/h (4 Bft)
02.06.2015 14:00 23,4 C 56 % 1015,9 hPa 0,0 l/m W-SW 1,00 h 924 W/m 24,3 km/h (4 Bft)
02.06.2015 15:00 24,2 C 52 % 1015,6 hPa 0,0 l/m W-SW 1,00 h 842 W/m 25,7 km/h (4 Bft)
02.06.2015 16:00 25,1 C 49 % 1015,4 hPa 0,0 l/m W 1,00 h 713 W/m 21,8 km/h (4 Bft)
02.06.2015 17:00 25,3 C 46 % 1015,4 hPa 0,0 l/m W-SW 1,00 h 564 W/m 20,8 km/h (4 Bft)
02.06.2015 18:00 24,9 C 47 % 1015,4 hPa 0,0 l/m W-SW 1,00 h 395 W/m 19,4 km/h (3 Bft)
02.06.2015 19:00 24,1 C 50 % 1015,3 hPa 0,0 l/m W 1,00 h 220 W/m 13,7 km/h (3 Bft)
02.06.2015 20:00 22,3 C 55 % 1015,5 hPa 0,0 l/m W 0,00 h 23 W/m 7,8 km/h (2 Bft)
02.06.2015 21:00 19,4 C 68 % 1016,0 hPa 0,0 l/m N 0,08 h 6 W/m 1,1 km/h (0 Bft)
02.06.2015 22:00 17,7 C 74 % 1016,5 hPa 0,0 l/m W 0,00 h 0 W/m 1,7 km/h (1 Bft)
02.06.2015 23:00 16,7 C 79 % 1016,9 hPa 0,0 l/m N 0,00 h 0 W/m 1,2 km/h (1 Bft)
03.06.2015 00:00 15,8 C 84 % 1017,3 hPa 0,0 l/m N 0,00 h 0 W/m 1,3 km/h (1 Bft)
03.06.2015 01:00 14,9 C 87 % 1017,5 hPa 0,0 l/m N 0,00 h 0 W/m 0,0 km/h (0 Bft)
03.06.2015 02:00 14,0 C 90 % 1017,6 hPa 0,0 l/m N 0,00 h 0 W/m 0,0 km/h (0 Bft)
03.06.2015 03:00 13,2 C 92 % 1017,8 hPa 0,0 l/m N 0,00 h 0 W/m 0,0 km/h (0 Bft)
03.06.2015 04:00 12,7 C 94 % 1017,9 hPa 0,0 l/m N 0,00 h 0 W/m 0,0 km/h (0 Bft)
03.06.2015 05:00 12,4 C 95 % 1018,2 hPa 0,0 l/m N 0,00 h 9 W/m 0,0 km/h (0 Bft)
03.06.2015 06:00 13,3 C 95 % 1018,6 hPa 0,0 l/m N 0,00 h 60 W/m 0,0 km/h (0 Bft)
03.06.2015 07:00 16,1 C 90 % 1018,9 hPa 0,0 l/m W 0,83 h 197 W/m 3,7 km/h (1 Bft)
03.06.2015 08:00 19,0 C 80 % 1019,2 hPa 0,0 l/m SW 1,00 h 350 W/m 13,7 km/h (3 Bft)
03.06.2015 09:00 21,2 C 70 % 1019,5 hPa 0,0 l/m W-SW 1,00 h 512 W/m 15,3 km/h (3 Bft)
03.06.2015 10:00 23,0 C 49 % 1019,5 hPa 0,0 l/m SW 1,00 h 661 W/m 18,6 km/h (3 Bft)
03.06.2015 11:00 24,0 C 45 % 1019,7 hPa 0,0 l/m W-SW 1,00 h 782 W/m 22,5 km/h (4 Bft)
03.06.2015 12:00 24,8 C 44 % 1019,6 hPa 0,0 l/m SW 1,00 h 868 W/m 22,5 km/h (4 Bft)
03.06.2015 13:00 25,6 C 43 % 1019,3 hPa 0,0 l/m SW 1,00 h 899 W/m 22,6 km/h (4 Bft)
03.06.2015 14:00 26,7 C 41 % 1019,1 hPa 0,0 l/m W-SW 1,00 h 881 W/m 23,3 km/h (4 Bft)
03.06.2015 15:00 27,5 C 39 % 1018,8 hPa 0,0 l/m W-SW 1,00 h 815 W/m 20,8 km/h (4 Bft)
03.06.2015 16:00 28,0 C 39 % 1018,6 hPa 0,0 l/m SW 1,00 h 696 W/m 14,0 km/h (3 Bft)
03.06.2015 17:00 27,8 C 40 % 1018,4 hPa 0,0 l/m W 1,00 h 564 W/m 11,5 km/h (2 Bft)
03.06.2015 18:00 27,3 C 38 % 1018,3 hPa 0,0 l/m N 0,83 h 358 W/m 12,5 km/h (3 Bft)
03.06.2015 19:00 24,4 C 44 % 1018,9 hPa 0,0 l/m N 0,17 h 93 W/m 9,9 km/h (2 Bft)
03.06.2015 20:00 23,0 C 55 % 1019,4 hPa 0,0 l/m N 0,00 h 33 W/m 3,6 km/h (1 Bft)
03.06.2015 21:00 20,1 C 67 % 1020,0 hPa 0,0 l/m N 0,08 h 7 W/m 0,7 km/h (0 Bft)
03.06.2015 22:00 18,7 C 73 % 1020,7 hPa 0,0 l/m N 0,00 h 0 W/m 3,5 km/h (1 Bft)
03.06.2015 23:00 17,8 C 78 % 1021,3 hPa 0,0 l/m N 0,00 h 0 W/m 4,5 km/h (1 Bft)
04.06.2015 00:00 16,8 C 81 % 1021,8 hPa 0,0 l/m N 0,00 h 0 W/m 5,6 km/h (1 Bft)
04.06.2015 01:00 15,7 C 85 % 1022,0 hPa 0,0 l/m N 0,00 h 0 W/m 2,1 km/h (1 Bft)
04.06.2015 02:00 15,0 C 86 % 1022,1 hPa 0,0 l/m N 0,00 h 0 W/m 5,2 km/h (1 Bft)
04.06.2015 03:00 14,4 C 87 % 1022,0 hPa 0,0 l/m N 0,00 h 0 W/m 3,5 km/h (1 Bft)
04.06.2015 04:00 13,7 C 90 % 1021,9 hPa 0,0 l/m N 0,00 h 0 W/m 2,1 km/h (1 Bft)
04.06.2015 05:00 13,2 C 90 % 1022,0 hPa 0,0 l/m N 0,00 h 10 W/m 4,5 km/h (1 Bft)
04.06.2015 06:00 13,7 C 89 % 1022,1 hPa 0,0 l/m N 0,00 h 60 W/m 4,8 km/h (1 Bft)
04.06.2015 07:00 15,7 C 82 % 1022,2 hPa 0,0 l/m N 0,92 h 210 W/m 7,3 km/h (2 Bft)
04.06.2015 08:00 17,8 C 75 % 1022,1 hPa 0,0 l/m O-NO 1,00 h 376 W/m 9,4 km/h (2 Bft)
04.06.2015 09:00 19,9 C 69 % 1022,1 hPa 0,0 l/m O 1,00 h 540 W/m 11,7 km/h (2 Bft)
04.06.2015 10:00 21,9 C 64 % 1021,9 hPa 0,0 l/m O-SO 1,00 h 676 W/m 13,2 km/h (3 Bft)
04.06.2015 11:00 23,2 C 60 % 1021,7 hPa 0,0 l/m O-NO 1,00 h 795 W/m 12,4 km/h (3 Bft)
04.06.2015 12:00 24,9 C 54 % 1021,4 hPa 0,0 l/m NO 1,00 h 872 W/m 13,4 km/h (3 Bft)
04.06.2015 13:00 26,1 C 50 % 1021,0 hPa 0,0 l/m O-NO 1,00 h 903 W/m 14,5 km/h (3 Bft)
04.06.2015 14:00 27,4 C 46 % 1020,5 hPa 0,0 l/m O-NO 1,00 h 877 W/m 14,6 km/h (3 Bft)
04.06.2015 15:00 28,2 C 46 % 1020,0 hPa 0,0 l/m N-NO 1,00 h 805 W/m 14,8 km/h (3 Bft)
04.06.2015 16:00 28,3 C 45 % 1019,5 hPa 0,0 l/m O-NO 1,00 h 691 W/m 14,6 km/h (3 Bft)
04.06.2015 17:00 28,3 C 45 % 1019,1 hPa 0,0 l/m N-NO 1,00 h 552 W/m 16,9 km/h (3 Bft)
04.06.2015 18:00 27,6 C 48 % 1018,8 hPa 0,0 l/m NO 1,00 h 386 W/m 15,3 km/h (3 Bft)
04.06.2015 19:00 26,1 C 52 % 1018,8 hPa 0,0 l/m NO 1,00 h 213 W/m 14,4 km/h (3 Bft)
04.06.2015 20:00 24,4 C 57 % 1018,8 hPa 0,0 l/m NO 0,00 h 23 W/m 9,5 km/h (2 Bft)
04.06.2015 21:00 22,0 C 66 % 1019,1 hPa 0,0 l/m N 0,00 h 6 W/m 3,6 km/h (1 Bft)
04.06.2015 22:00 20,0 C 73 % 1019,5 hPa 0,0 l/m N 0,00 h 0 W/m 1,5 km/h (1 Bft)
04.06.2015 23:00 19,1 C 73 % 1019,6 hPa 0,0 l/m NO 0,00 h 0 W/m 2,3 km/h (1 Bft)
05.06.2015 00:00 18,5 C 72 % 1019,4 hPa 0,0 l/m NO 0,00 h 0 W/m 2,5 km/h (1 Bft)
05.06.2015 01:00 18,0 C 74 % 1019,2 hPa 0,0 l/m NO 0,00 h 0 W/m 4,3 km/h (1 Bft)
05.06.2015 02:00 17,4 C 78 % 1019,0 hPa 0,0 l/m NO 0,00 h 0 W/m 3,5 km/h (1 Bft)
05.06.2015 03:00 16,8 C 82 % 1018,7 hPa 0,0 l/m NO 0,00 h 0 W/m 1,1 km/h (0 Bft)
05.06.2015 04:00 16,1 C 85 % 1018,5 hPa 0,0 l/m NO 0,00 h 0 W/m 2,9 km/h (1 Bft)
05.06.2015 05:00 15,6 C 86 % 1018,5 hPa 0,0 l/m NO 0,00 h 9 W/m 3,6 km/h (1 Bft)
05.06.2015 06:00 15,9 C 86 % 1018,7 hPa 0,0 l/m NO 0,00 h 58 W/m 2,1 km/h (1 Bft)
05.06.2015 07:00 17,7 C 82 % 1018,6 hPa 0,0 l/m NO 0,83 h 200 W/m 4,0 km/h (1 Bft)
05.06.2015 08:00 20,0 C 76 % 1018,6 hPa 0,0 l/m NO 1,00 h 364 W/m 5,3 km/h (1 Bft)
05.06.2015 09:00 22,4 C 70 % 1018,5 hPa 0,0 l/m NO 1,00 h 528 W/m 5,3 km/h (1 Bft)
05.06.2015 10:00 24,5 C 64 % 1018,5 hPa 0,0 l/m O 0,92 h 643 W/m 9,1 km/h (2 Bft)
05.06.2015 11:00 25,9 C 61 % 1018,3 hPa 0,0 l/m O-NO 1,00 h 780 W/m 10,1 km/h (2 Bft)
05.06.2015 12:00 27,4 C 56 % 1018,0 hPa 0,0 l/m NO 1,00 h 855 W/m 10,2 km/h (2 Bft)
05.06.2015 13:00 28,7 C 51 % 1017,4 hPa 0,0 l/m NO 1,00 h 874 W/m 9,9 km/h (2 Bft)
05.06.2015 14:00 29,8 C 44 % 1017,0 hPa 0,0 l/m O 1,00 h 867 W/m 9,3 km/h (2 Bft)
05.06.2015 15:00 30,6 C 40 % 1016,7 hPa 0,0 l/m N-NO 1,00 h 806 W/m 9,7 km/h (2 Bft)
05.06.2015 16:00 30,9 C 36 % 1016,1 hPa 0,0 l/m O-NO 1,00 h 698 W/m 8,0 km/h (2 Bft)
05.06.2015 17:00 31,1 C 37 % 1015,3 hPa 0,0 l/m O 1,00 h 553 W/m 11,2 km/h (2 Bft)
05.06.2015 18:00 30,5 C 38 % 1014,8 hPa 0,0 l/m O-NO 1,00 h 394 W/m 12,4 km/h (3 Bft)
05.06.2015 19:00 29,2 C 44 % 1014,6 hPa 0,0 l/m O-NO 1,00 h 220 W/m 10,6 km/h (2 Bft)
05.06.2015 20:00 27,3 C 52 % 1014,5 hPa 0,0 l/m O 0,00 h 22 W/m 6,7 km/h (2 Bft)
05.06.2015 21:00 23,9 C 65 % 1014,6 hPa 0,0 l/m N 0,00 h 6 W/m 1,3 km/h (1 Bft)
05.06.2015 22:00 21,8 C 71 % 1015,0 hPa 0,0 l/m N 0,00 h 0 W/m 1,5 km/h (1 Bft)
05.06.2015 23:00 20,7 C 75 % 1015,2 hPa 0,0 l/m N 0,00 h 0 W/m 0,9 km/h (0 Bft)
06.06.2015 00:00 20,1 C 78 % 1015,4 hPa 0,0 l/m O 0,00 h 0 W/m 1,5 km/h (1 Bft)
06.06.2015 01:00 19,4 C 81 % 1015,5 hPa 0,0 l/m O 0,00 h 0 W/m 2,0 km/h (1 Bft)
06.06.2015 02:00 18,9 C 84 % 1016,1 hPa 0,0 l/m N 0,00 h 0 W/m 1,2 km/h (1 Bft)
06.06.2015 03:00 19,1 C 83 % 1017,1 hPa 0,0 l/m O 0,00 h 0 W/m 4,4 km/h (1 Bft)
06.06.2015 04:00 19,7 C 78 % 1017,1 hPa 0,0 l/m S-SW 0,00 h 0 W/m 9,7 km/h (2 Bft)
06.06.2015 05:00 18,2 C 85 % 1017,4 hPa 0,0 l/m SW 0,00 h 12 W/m 9,5 km/h (2 Bft)
06.06.2015 06:00 18,8 C 84 % 1017,9 hPa 0,0 l/m W-SW 0,00 h 39 W/m 9,3 km/h (2 Bft)
06.06.2015 07:00 19,0 C 86 % 1018,2 hPa 0,0 l/m N 0,50 h 162 W/m 1,3 km/h (1 Bft)
06.06.2015 08:00 21,8 C 76 % 1018,4 hPa 0,0 l/m W-SW 1,00 h 344 W/m 4,7 km/h (1 Bft)
06.06.2015 09:00 23,5 C 68 % 1018,5 hPa 0,0 l/m W-SW 1,00 h 500 W/m 10,2 km/h (2 Bft)
06.06.2015 10:00 25,5 C 58 % 1018,5 hPa 0,0 l/m SW 0,92 h 644 W/m 15,3 km/h (3 Bft)
06.06.2015 11:00 26,9 C 51 % 1018,5 hPa 0,0 l/m SW 1,00 h 781 W/m 15,0 km/h (3 Bft)
06.06.2015 12:00 28,3 C 49 % 1018,4 hPa 0,0 l/m W-SW 1,00 h 859 W/m 16,1 km/h (3 Bft)
06.06.2015 13:00 29,5 C 43 % 1018,2 hPa 0,0 l/m SW 1,00 h 891 W/m 13,4 km/h (3 Bft)
06.06.2015 14:00 30,4 C 41 % 1017,9 hPa 0,0 l/m S-SW 1,00 h 871 W/m 9,3 km/h (2 Bft)
06.06.2015 15:00 30,9 C 38 % 1017,5 hPa 0,0 l/m O 1,00 h 689 W/m 9,0 km/h (2 Bft)
06.06.2015 16:00 31,3 C 38 % 1017,2 hPa 0,0 l/m NO 1,00 h 721 W/m 7,0 km/h (2 Bft)
06.06.2015 17:00 30,9 C 39 % 1017,5 hPa 0,0 l/m N 0,75 h 479 W/m 8,4 km/h (2 Bft)
06.06.2015 18:00 28,5 C 52 % 1017,4 hPa 0,0 l/m N 0,33 h 183 W/m 15,6 km/h (3 Bft)
06.06.2015 19:00 25,9 C 63 % 1017,4 hPa 0,0 l/m N 0,00 h 29 W/m 13,3 km/h (3 Bft)
06.06.2015 20:00 24,6 C 71 % 1018,5 hPa 0,0 l/m N 0,00 h 12 W/m 7,2 km/h (2 Bft)
06.06.2015 21:00 21,6 C 67 % 1019,8 hPa 0,2 l/m SW 0,00 h 0 W/m 26,4 km/h (4 Bft)
06.06.2015 22:00 18,5 C 86 % 1020,5 hPa 0,0 l/m SO 0,00 h 0 W/m 3,3 km/h (1 Bft)
06.06.2015 23:00 18,4 C 88 % 1021,1 hPa 0,0 l/m O 0,00 h 0 W/m 4,4 km/h (1 Bft)
07.06.2015 00:00 18,3 C 87 % 1021,7 hPa 0,0 l/m O 0,00 h 0 W/m 9,4 km/h (2 Bft)
07.06.2015 01:00 17,7 C 88 % 1021,4 hPa 0,2 l/m O-SO 0,00 h 0 W/m 1,3 km/h (1 Bft)
07.06.2015 02:00 17,6 C 89 % 1021,2 hPa 0,0 l/m N-NW 0,00 h 0 W/m 7,4 km/h (2 Bft)
07.06.2015 03:00 17,5 C 89 % 1020,9 hPa 0,0 l/m N 0,00 h 0 W/m 2,5 km/h (1 Bft)
07.06.2015 04:00 16,9 C 92 % 1020,6 hPa 0,0 l/m SO 0,00 h 0 W/m 3,3 km/h (1 Bft)
07.06.2015 05:00 16,2 C 93 % 1020,7 hPa 0,0 l/m N 0,00 h 11 W/m 0,8 km/h (0 Bft)
07.06.2015 06:00 16,1 C 91 % 1021,0 hPa 0,0 l/m N 0,00 h 56 W/m 0,5 km/h (0 Bft)
07.06.2015 07:00 18,1 C 86 % 1021,1 hPa 0,0 l/m O-NO 0,92 h 213 W/m 5,5 km/h (1 Bft)
07.06.2015 08:00 20,3 C 77 % 1021,2 hPa 0,0 l/m O-NO 1,00 h 354 W/m 6,9 km/h (2 Bft)
07.06.2015 09:00 22,0 C 70 % 1021,0 hPa 0,0 l/m O-SO 1,00 h 521 W/m 11,8 km/h (2 Bft)
07.06.2015 10:00 23,4 C 64 % 1021,1 hPa 0,0 l/m O-NO 1,00 h 659 W/m 12,4 km/h (3 Bft)
07.06.2015 11:00 24,5 C 62 % 1021,0 hPa 0,0 l/m NO 1,00 h 784 W/m 14,4 km/h (3 Bft)
07.06.2015 12:00 25,5 C 59 % 1020,8 hPa 0,0 l/m NO 1,00 h 863 W/m 14,8 km/h (3 Bft)
07.06.2015 13:00 26,3 C 55 % 1020,4 hPa 0,0 l/m O-NO 1,00 h 887 W/m 16,2 km/h (3 Bft)
07.06.2015 14:00 27,1 C 54 % 1019,9 hPa 0,0 l/m O 1,00 h 883 W/m 16,0 km/h (3 Bft)
07.06.2015 15:00 27,8 C 51 % 1019,6 hPa 0,0 l/m O-NO 1,00 h 830 W/m 18,4 km/h (3 Bft)
07.06.2015 16:00 28,1 C 50 % 1019,1 hPa 0,0 l/m O-NO 0,92 h 716 W/m 18,5 km/h (3 Bft)
07.06.2015 17:00 27,5 C 51 % 1018,6 hPa 0,0 l/m O-NO 0,75 h 472 W/m 20,6 km/h (4 Bft)
07.06.2015 18:00 26,7 C 52 % 1018,3 hPa 0,0 l/m NO 0,92 h 370 W/m 17,7 km/h (3 Bft)
07.06.2015 19:00 26,3 C 51 % 1018,4 hPa 0,0 l/m O-NO 0,92 h 242 W/m 17,7 km/h (3 Bft)
07.06.2015 20:00 24,7 C 62 % 1018,6 hPa 0,0 l/m N-NO 0,17 h 41 W/m 16,2 km/h (3 Bft)
07.06.2015 21:00 23,1 C 70 % 1018,5 hPa 0,0 l/m NO 0,08 h 8 W/m 13,7 km/h (3 Bft)
07.06.2015 22:00 22,0 C 75 % 1018,9 hPa 0,0 l/m N-NO 0,00 h 0 W/m 11,7 km/h (2 Bft)
07.06.2015 23:00 20,9 C 79 % 1018,9 hPa 0,0 l/m N-NO 0,00 h 0 W/m 7,1 km/h (2 Bft)
Min-Datum _ 03.06.15 03.06.15 01.06.15 - - - - 01.06.15
_ Min-Zeit 05:35 18:35 17:15 - - - - 00:15
Minimum _ 12,3 C 34 % 1012,4 hPa - - - - 0,0 km/h (0 Bft)
Max-Datum _ 06.06.15 02.06.15 04.06.15 01.06.15 - 02.06.15 01.06.15 01.06.15
_ Max-Zeit 16:50 06:10 02:25 19:40 - 16:45 15:35 15:00
Maximum _ 31,7 C 96 % 1022,2 hPa 0,2 l/m - 0,17 h 1144 W/m 48,3 km/h
W-NW (6 Bft)
Durchschnitt _ 21,1 C 68 % 1017,8 hPa #0,6 l/m W-SW #80:35 h 453 W/m 9,9 km/h (2 Bft)